메인 페이지
METAR-TAF:

METAR-TAF

공항 :

지부티, 지부티

위도: 11-33N, 경도: 043-10E, 고도: 49m

현재 날씨관측

예보는 2 시간 3분 전, 10:00시(UTC)에 발표되었습니다.
11kt
온도 32°C
습도 75%
기압 1012 hPa
시정 10km 이상
고도 2300ft 상공 구름 보통
고도 13300ft 상공 구름 조금

METAR: HDAM 201000Z 09011KT 9999 SCT023 FEW133 32/27 Q1012

시각: 15:03 (12:03 UTC)

예보

예보는 7 시간 3분 전, 05:00시(UTC)에 발표되었습니다.
예보 대상 시간: 20일 06시부터 21일 06시까지 (UTC)
10kt
시정 10km 이상
고도 2000ft 상공 구름 보통
고도 3000ft 상공 구름 보통
전환 중
20일 15시부터 20일 18시까지 (UTC)
여러 방향의 바람 3kt
고도 2000ft 상공 구름 보통
전환 중
21일 00시부터 21일 06시까지 (UTC)
10kt
고도 2000ft 상공 구름 보통
고도 3000ft 상공 구름 많음
소나기

TAF: HDAM 200500Z 2006/2106 10010KT 9999 SCT020 SCT030 BECMG 2015/2018 VRB03KT SCT020 BECMG 2100/2106 08010KT SHRA SCT020 BKN030

4,000개 이상의 공항 관측 자료 및 예보 (METAR 및 TAF 보고).

지도상에서 검색 가능한 기상관측소가 노란 점과 빨간 점으로 표시되어 있습니다.

기상관측소 명을 보려면 표시 위로 마우스를 이동하세요.

날씨 관측과 예보를 보려면 클릭하세요.

지도 변경 : 확대하려면 엑스 표시가 있는 녹색 버튼, 축소하려면 빼기 표시가 있는 녹색 버튼, 다음 페이지의 지도를 보려면 녹색 화살표를 클릭하세요.


METAR-TAF: